Time;durP1;ratioP1;P1;durP2;ratioP2;P2;SDS_P1;SDS_P2;PMS_P1;PMS_P2;Temp;Humidity;BMP_temperature;BMP_pressure;BME280_temperature;BME280_humidity;BME280_pressure;Samples;Min_cycle;Max_cycle;Signal;HPM_P1;HPM_P2
2022/11/01 00:00:08;;;;;;;42.87;26.43;;;;;;;12.17;100.00;100832.72;3503107;83;99353;-90
2022/11/01 00:05:09;;;;;;;35.47;25.90;;;;;;;12.17;100.00;100821.69;3502816;83;25779;-90
2022/11/01 00:10:10;;;;;;;36.73;26.17;;;;;;;12.16;100.00;100815.94;3495343;83;99212;-90
2022/11/01 00:15:11;;;;;;;35.80;25.50;;;;;;;12.19;100.00;100800.59;3501000;83;33708;-90
2022/11/01 00:20:12;;;;;;;33.97;23.20;;;;;;;12.17;100.00;100809.84;3495400;83;99448;-91
2022/11/01 00:25:13;;;;;;;40.43;26.17;;;;;;;12.19;100.00;100810.24;3503170;83;33893;-92
2022/11/01 00:30:15;;;;;;;28.37;22.23;;;;;;;12.22;100.00;100817.17;3495607;83;99159;-91
2022/11/01 00:35:16;;;;;;;35.87;23.67;;;;;;;12.23;100.00;100809.13;3490882;83;33681;-92
2022/11/01 00:40:17;;;;;;;35.47;24.60;;;;;;;12.20;100.00;100796.65;3492055;83;99233;-90
2022/11/01 00:45:18;;;;;;;37.37;24.83;;;;;;;12.20;100.00;100784.23;3496535;83;33219;-91
2022/11/01 00:50:19;;;;;;;33.70;23.47;;;;;;;12.19;100.00;100777.94;3485241;83;99323;-91
2022/11/01 00:55:20;;;;;;;38.73;24.97;;;;;;;12.21;100.00;100768.69;3497768;83;33254;-91
2022/11/01 01:00:21;;;;;;;36.47;23.93;;;;;;;12.24;100.00;100767.13;3489118;83;99420;-91
2022/11/01 01:05:21;;;;;;;33.20;22.98;;;;;;;12.23;100.00;100763.59;3494768;83;33250;-91
2022/11/01 01:10:23;;;;;;;37.33;24.60;;;;;;;12.25;100.00;100761.81;3492198;83;99175;-92
2022/11/01 01:15:23;;;;;;;34.07;24.97;;;;;;;12.25;100.00;100761.24;3501242;83;31614;-91
2022/11/01 01:20:24;;;;;;;47.47;24.73;;;;;;;12.23;100.00;100745.66;3493574;83;99202;-92
2022/11/01 01:25:25;;;;;;;35.93;24.17;;;;;;;12.20;100.00;100735.95;3493320;83;31646;-92
2022/11/01 01:30:26;;;;;;;34.97;24.10;;;;;;;12.16;100.00;100729.02;3494123;83;99309;-92
2022/11/01 01:35:27;;;;;;;34.67;22.67;;;;;;;12.18;100.00;100726.69;3501732;83;31675;-90
2022/11/01 01:40:28;;;;;;;33.38;23.90;;;;;;;12.22;100.00;100727.49;3495701;83;99570;-92
2022/11/01 01:45:38;;;;;;;41.23;24.70;;;;;;;12.23;100.00;100734.63;3501912;83;31980;-92
2022/11/01 01:50:50;;;;;;;35.67;25.40;;;;;;;12.24;100.00;100740.91;3491455;83;99302;-92
2022/11/01 01:56:03;;;;;;;33.65;22.15;;;;;;;12.26;100.00;100751.01;3501152;83;33352;-92
2022/11/01 02:01:04;;;;;;;31.62;22.37;;;;;;;12.30;100.00;100758.14;3494875;83;98775;-92
2022/11/01 02:06:20;;;;;;;34.97;23.43;;;;;;;12.34;100.00;100750.69;3499557;83;31756;-92
2022/11/01 02:11:22;;;;;;;55.10;25.12;;;;;;;12.35;100.00;100750.89;3499074;83;33263;-92
2022/11/01 02:16:40;;;;;;;39.57;24.93;;;;;;;12.36;100.00;100732.34;3490705;83;99348;-93
2022/11/01 02:22:13;;;;;;;38.98;25.90;;;;;;;12.36;100.00;100718.55;3491006;83;33213;-91
2022/11/01 02:27:41;;;;;;;43.80;26.77;;;;;;;12.29;100.00;100704.13;3486880;83;99608;-92
2022/11/01 02:33:09;;;;;;;35.83;23.80;;;;;;;12.26;100.00;100699.34;3494928;83;33518;-92
2022/11/01 02:38:30;;;;;;;41.30;27.60;;;;;;;12.30;100.00;100707.66;3447130;83;99394;-93
2022/11/01 02:43:42;;;;;;;34.30;24.05;;;;;;;12.34;100.00;100725.85;3487848;83;33334;-93
2022/11/01 02:48:43;;;;;;;35.40;25.57;;;;;;;12.37;100.00;100729.21;3494083;83;99282;-93
2022/11/01 02:53:44;;;;;;;39.83;26.63;;;;;;;12.41;100.00;100717.63;3492047;83;31656;-92
2022/11/01 02:58:47;;;;;;;42.37;27.17;;;;;;;12.42;100.00;100707.39;3489840;83;99527;-93
2022/11/01 03:03:51;;;;;;;57.27;28.05;;;;;;;12.39;100.00;100698.47;3499984;83;33232;-93
2022/11/01 03:08:59;;;;;;;47.50;27.42;;;;;;;12.35;100.00;100691.55;3494923;83;99468;-91
2022/11/01 03:14:26;;;;;;;39.88;26.33;;;;;;;12.33;100.00;100692.50;3501526;83;33851;-92
2022/11/01 03:20:08;;;;;;;40.88;27.75;;;;;;;12.34;100.00;100702.39;3490448;83;99391;-92
2022/11/01 03:25:39;;;;;;;36.10;25.65;;;;;;;12.35;100.00;100721.91;3494295;83;33838;-92
2022/11/01 03:30:44;;;;;;;43.95;28.15;;;;;;;12.40;100.00;100716.61;3487999;83;99651;-93
2022/11/01 03:35:49;;;;;;;41.47;28.63;;;;;;;12.43;100.00;100729.67;3495315;83;25966;-93
2022/11/01 03:40:55;;;;;;;41.92;27.05;;;;;;;12.42;100.00;100720.58;3489711;83;99317;-93
2022/11/01 03:45:56;;;;;;;43.13;25.92;;;;;;;12.44;100.00;100729.86;3494306;83;26320;-92
2022/11/01 03:50:57;;;;;;;37.97;25.93;;;;;;;12.41;100.00;100721.77;3488365;83;99335;-92
2022/11/01 03:55:58;;;;;;;37.37;25.03;;;;;;;12.40;100.00;100724.32;3495399;83;32910;-92
2022/11/01 04:00:59;;;;;;;35.00;25.77;;;;;;;12.40;100.00;100731.22;3488234;83;99212;-92
2022/11/01 04:05:59;;;;;;;35.97;24.63;;;;;;;12.42;100.00;100725.33;3492318;83;31626;-92
2022/11/01 04:11:00;;;;;;;38.80;24.50;;;;;;;12.41;100.00;100727.86;3488572;83;99187;-91
2022/11/01 04:21:24;;;;;;;39.67;24.72;;;;;;;12.34;100.00;100683.07;3481502;84;34371;-91
2022/11/01 04:26:25;;;;;;;34.33;22.67;;;;;;;12.34;100.00;100676.17;3485431;83;99559;-90
2022/11/01 04:31:35;;;;;;;41.27;24.43;;;;;;;12.30;100.00;100630.38;3480534;84;31651;-91
2022/11/01 04:36:37;;;;;;;38.67;24.18;;;;;;;12.28;100.00;100631.36;3468557;84;99425;-89
2022/11/01 04:41:37;;;;;;;38.10;23.95;;;;;;;12.13;100.00;100568.39;3481807;84;33282;-90
2022/11/01 04:46:38;;;;;;;56.93;26.03;;;;;;;12.13;100.00;100568.39;3478334;84;99513;-88
2022/11/01 04:51:39;;;;;;;45.43;26.93;;;;;;;12.07;100.00;100544.30;3479641;84;31660;-89
2022/11/01 04:56:40;;;;;;;41.63;26.53;;;;;;;11.99;100.00;100563.36;3476469;84;99484;-91
2022/11/01 05:01:41;;;;;;;44.17;29.43;;;;;;;12.01;100.00;100609.27;3479909;84;31762;-90
2022/11/01 05:06:42;;;;;;;45.23;27.67;;;;;;;12.05;100.00;100616.40;3470306;84;99436;-91
2022/11/01 05:11:42;;;;;;;44.97;29.20;;;;;;;12.08;100.00;100580.36;3477375;84;31616;-92
2022/11/01 05:16:43;;;;;;;45.02;28.92;;;;;;;12.12;100.00;100612.91;3476303;84;99574;-92
2022/11/01 05:21:44;;;;;;;39.70;26.37;;;;;;;12.16;100.00;100624.16;3504017;82;25884;-91
2022/11/01 05:26:45;;;;;;;44.10;28.02;;;;;;;12.20;100.00;100620.86;3502425;82;99360;-91
2022/11/01 05:31:46;;;;;;;39.20;25.27;;;;;;;12.20;100.00;100612.58;3508441;82;26234;-91
2022/11/01 05:36:47;;;;;;;40.15;25.37;;;;;;;12.20;100.00;100609.02;3498609;82;99406;-91
2022/11/01 05:41:47;;;;;;;43.00;26.33;;;;;;;12.22;100.00;100608.84;3505700;82;34836;-91
2022/11/01 05:46:48;;;;;;;39.03;24.03;;;;;;;12.22;100.00;100601.16;3498949;82;99343;-92
2022/11/01 05:51:49;;;;;;;44.13;28.30;;;;;;;12.22;100.00;100584.61;3509847;82;34898;-91
2022/11/01 05:56:50;;;;;;;41.98;26.73;;;;;;;12.22;100.00;100590.13;3499351;82;99401;-92
2022/11/01 06:01:51;;;;;;;42.50;27.93;;;;;;;12.22;100.00;100604.70;3508553;82;36196;-91
2022/11/01 06:06:52;;;;;;;45.27;26.57;;;;;;;12.23;100.00;100607.69;3500447;82;99411;-91
2022/11/01 06:11:52;;;;;;;41.07;24.97;;;;;;;12.23;100.00;100599.41;3509667;82;29033;-92
2022/11/01 06:16:53;;;;;;;42.30;27.07;;;;;;;12.22;100.00;100592.89;3468839;83;99621;-91
2022/11/01 06:21:54;;;;;;;43.40;27.77;;;;;;;12.23;100.00;100580.67;3502289;83;33053;-92
2022/11/01 06:26:55;;;;;;;53.77;28.03;;;;;;;12.24;100.00;100579.48;3493179;83;99091;-92
2022/11/01 06:31:55;;;;;;;51.23;28.23;;;;;;;12.25;100.00;100577.73;3499390;83;33470;-92
2022/11/01 06:36:57;;;;;;;47.53;29.47;;;;;;;12.23;100.00;100578.71;3461983;83;99013;-92
2022/11/01 06:41:58;;;;;;;46.03;28.33;;;;;;;12.25;100.00;100578.30;3493196;83;33060;-93
2022/11/01 06:46:59;;;;;;;50.20;30.25;;;;;;;12.18;100.00;100557.57;3493051;83;99209;-92
2022/11/01 06:52:00;;;;;;;44.73;30.17;;;;;;;12.18;100.00;100557.57;3512782;83;28451;-92
2022/11/01 06:57:00;;;;;;;50.80;31.47;;;;;;;12.34;100.00;100582.33;3494747;83;99602;-91
2022/11/01 07:02:01;;;;;;;50.97;33.33;;;;;;;12.41;100.00;100585.70;3504686;83;25889;-93
2022/11/01 07:07:03;;;;;;;53.68;33.23;;;;;;;12.44;100.00;100579.42;3493174;83;99578;-91
2022/11/01 07:12:04;;;;;;;56.37;34.47;;;;;;;12.47;100.00;100571.73;3501551;83;25975;-92
2022/11/01 07:17:05;;;;;;;66.00;36.23;;;;;;;12.47;100.00;100571.16;3494558;83;99217;-91
2022/11/01 07:22:07;;;;;;;51.47;30.87;;;;;;;12.51;100.00;100575.31;3510907;82;26161;-91
2022/11/01 07:27:08;;;;;;;51.23;33.30;;;;;;;12.51;100.00;100576.70;3500853;82;99374;-90
2022/11/01 07:32:09;;;;;;;52.07;32.17;;;;;;;12.50;100.00;100573.73;3511780;82;26717;-92
2022/11/01 07:37:10;;;;;;;44.83;28.17;;;;;;;12.54;100.00;100560.75;3510293;82;99471;-92
2022/11/01 07:42:10;;;;;;;48.37;30.70;;;;;;;12.53;100.00;100555.04;3505279;82;26351;-91
2022/11/01 07:47:11;;;;;;;46.93;29.43;;;;;;;12.63;100.00;100572.22;3499318;83;99538;-91
2022/11/01 07:52:13;;;;;;;49.15;29.87;;;;;;;12.69;100.00;100588.62;3503123;84;26604;-92
2022/11/01 07:57:14;;;;;;;49.43;32.47;;;;;;;12.76;100.00;100580.39;3499307;83;99421;-90
2022/11/01 08:02:14;;;;;;;52.90;33.07;;;;;;;12.85;100.00;100585.75;3507510;83;33292;-91
2022/11/01 08:07:16;;;;;;;48.90;29.23;;;;;;;12.93;100.00;100592.87;3500399;82;99341;-91
2022/11/01 08:12:17;;;;;;;45.27;29.73;;;;;;;12.97;100.00;100594.33;3508352;82;33499;-92
2022/11/01 08:17:18;;;;;;;58.20;32.97;;;;;;;13.05;100.00;100596.73;3503693;82;99389;-90
2022/11/01 08:22:19;;;;;;;51.85;31.17;;;;;;;13.09;100.00;100596.73;3506080;83;33322;-93
2022/11/01 08:27:20;;;;;;;48.45;29.45;;;;;;;13.05;100.00;100579.34;3505247;82;99430;-89
2022/11/01 08:32:21;;;;;;;48.43;34.77;;;;;;;13.07;100.00;100568.11;3477083;82;34389;-90
2022/11/01 08:37:22;;;;;;;55.47;34.30;;;;;;;13.15;100.00;100568.34;3503214;82;99432;-91
2022/11/01 08:42:23;;;;;;;49.63;31.50;;;;;;;13.19;100.00;100557.30;3509225;82;26082;-89
2022/11/01 08:47:24;;;;;;;53.83;33.47;;;;;;;13.28;100.00;100562.64;3506745;82;99318;-90
2022/11/01 08:52:24;;;;;;;50.85;33.25;;;;;;;13.37;100.00;100569.17;3509656;82;33228;-86
2022/11/01 08:57:25;;;;;;;50.87;32.53;;;;;;;13.44;100.00;100565.83;3502808;82;99666;-87
2022/11/01 09:02:26;;;;;;;54.93;32.60;;;;;;;13.53;100.00;100570.37;3509781;82;26510;-89
2022/11/01 09:07:28;;;;;;;51.20;31.87;;;;;;;13.53;100.00;100554.39;3502722;82;99603;-89
2022/11/01 09:12:29;;;;;;;54.40;31.37;;;;;;;13.56;100.00;100574.32;3507396;82;31663;-88
2022/11/01 09:17:30;;;;;;;56.63;32.53;;;;;;;13.65;100.00;100571.97;3502176;82;99632;-89
2022/11/01 09:22:30;;;;;;;59.07;36.10;;;;;;;13.66;100.00;100571.58;3507116;82;31654;-88
2022/11/01 09:27:32;;;;;;;61.53;34.53;;;;;;;13.72;100.00;100588.56;3507160;83;99338;-88
2022/11/01 09:32:33;;;;;;;64.80;37.47;;;;;;;13.74;100.00;100584.22;3510535;83;31733;-90
2022/11/01 09:37:34;;;;;;;60.90;35.00;;;;;;;13.77;100.00;100581.26;3513680;83;99580;-88
2022/11/01 09:42:42;;;;;;;67.73;35.87;;;;;;;13.76;100.00;100597.08;3510873;83;31606;-88
2022/11/01 09:47:47;;;;;;;64.12;37.08;;;;;;;13.75;100.00;100599.66;3504031;83;99383;-89
2022/11/01 09:52:50;;;;;;;70.72;39.88;;;;;;;13.77;100.00;100602.00;3506547;83;33879;-88
2022/11/01 09:58:08;;;;;;;66.25;37.25;;;;;;;13.80;100.00;100615.06;3499762;83;99650;-88
2022/11/01 10:03:23;;;;;;;78.12;41.02;;;;;;;13.73;100.00;100598.47;3505772;83;33255;-87
2022/11/01 10:08:32;;;;;;;75.00;40.50;;;;;;;13.65;100.00;100599.63;3497065;83;99543;-87
2022/11/01 10:14:10;;;;;;;85.53;47.00;;;;;;;13.65;100.00;100617.03;3507787;83;33224;-88
2022/11/01 10:19:18;;;;;;;79.55;44.45;;;;;;;13.57;100.00;100616.03;3498328;83;99761;-87
2022/11/01 10:24:27;;;;;;;84.52;45.95;;;;;;;13.49;100.00;100615.80;3471256;83;33248;-88
2022/11/01 10:29:40;;;;;;;75.90;45.33;;;;;;;13.49;100.00;100613.83;3494907;83;99256;-88
2022/11/01 10:34:41;;;;;;;68.02;42.35;;;;;;;13.47;100.00;100598.81;3500894;83;33773;-87
2022/11/01 10:39:56;;;;;;;68.28;39.75;;;;;;;13.46;100.00;100580.05;3500695;83;99189;-87
2022/11/01 10:45:03;;;;;;;71.10;40.70;;;;;;;13.54;100.00;100566.44;3502866;83;33823;-87
2022/11/01 10:50:16;;;;;;;69.95;42.25;;;;;;;13.60;100.00;100580.08;3490271;83;99241;-88
2022/11/01 10:55:37;;;;;;;68.62;42.35;;;;;;;13.60;100.00;100596.67;3500901;83;33310;-87
2022/11/01 11:00:40;;;;;;;71.95;41.68;;;;;;;13.54;100.00;100602.39;3494710;83;99243;-87
2022/11/01 11:05:41;;;;;;;85.20;45.63;;;;;;;13.59;100.00;100608.12;3500167;83;32385;-88
2022/11/01 11:10:43;;;;;;;79.40;44.77;;;;;;;13.60;100.00;100612.45;3494884;83;99206;-89
2022/11/01 11:16:01;;;;;;;85.10;47.45;;;;;;;13.58;100.00;100625.90;3502335;83;33259;-88
2022/11/01 11:21:07;;;;;;;84.22;48.42;;;;;;;13.53;100.00;100624.28;3496279;82;98904;-89
2022/11/01 11:26:15;;;;;;;78.80;46.92;;;;;;;13.54;100.00;100609.88;3521430;82;26605;-89
2022/11/01 11:31:30;;;;;;;71.20;43.70;;;;;;;13.52;100.00;100615.80;3522310;82;33232;-87
2022/11/01 11:36:35;;;;;;;81.42;48.90;;;;;;;13.55;100.00;100606.73;3519226;82;99210;-90
2022/11/01 11:41:37;;;;;;;84.13;49.18;;;;;;;13.55;100.00;100606.73;3522353;82;33797;-88
2022/11/01 11:46:44;;;;;;;82.08;47.90;;;;;;;13.55;100.00;100606.73;3521003;82;99437;-88
2022/11/01 11:51:45;;;;;;;;;;;;;;;13.55;100.00;100609.50;3524015;82;25877;-89
2022/11/01 11:56:50;;;;;;;74.00;43.83;;;;;;;13.52;100.00;100598.44;3514676;82;85133;-88
2022/11/01 12:01:58;;;;;;;79.57;48.13;;;;;;;13.54;100.00;100598.82;3517014;82;35612;-89
2022/11/01 12:06:59;;;;;;;70.08;44.58;;;;;;;13.57;100.00;100593.91;3494803;82;99390;-87
2022/11/01 12:12:18;;;;;;;72.27;44.40;;;;;;;13.62;100.00;100585.99;3523857;82;31729;-88
2022/11/01 12:17:35;;;;;;;76.12;44.13;;;;;;;13.76;100.00;100593.52;3510827;82;99100;-89
2022/11/01 12:22:40;;;;;;;78.42;46.45;;;;;;;13.80;100.00;100611.69;3510706;82;33336;-87
2022/11/01 12:27:49;;;;;;;72.12;44.88;;;;;;;13.81;100.00;100600.84;3496300;82;99423;-88
2022/11/01 12:32:57;;;;;;;77.70;46.58;;;;;;;13.89;100.00;100603.03;3501067;83;33326;-89
2022/11/01 12:38:16;;;;;;;70.62;44.55;;;;;;;13.97;100.00;100589.37;3498087;83;99360;-88
2022/11/01 12:43:34;;;;;;;68.80;45.30;;;;;;;14.01;100.00;100559.73;3503112;83;34175;-89
2022/11/01 12:48:41;;;;;;;65.03;43.55;;;;;;;14.03;100.00;100544.31;3498120;83;99499;-87
2022/11/01 12:53:59;;;;;;;75.92;44.75;;;;;;;14.07;100.00;100547.84;3504363;83;26514;-87
2022/11/01 12:59:00;;;;;;;71.02;45.73;;;;;;;14.18;100.00;100544.47;3497232;83;99303;-88
2022/11/01 13:04:19;;;;;;;73.80;45.77;;;;;;;14.28;100.00;100559.53;3498721;83;31650;-87
2022/11/01 13:09:41;;;;;;;75.67;47.65;;;;;;;14.37;100.00;100568.20;3499808;83;99292;-88
2022/11/01 13:14:57;;;;;;;77.05;47.58;;;;;;;14.42;100.00;100607.95;3492291;83;31931;-89
2022/11/01 13:20:04;;;;;;;80.67;49.67;;;;;;;14.29;100.00;100597.09;3494717;83;99278;-90
2022/11/01 13:25:20;;;;;;;82.35;50.33;;;;;;;14.25;100.00;100596.30;3509910;82;32101;-90
2022/11/01 13:30:21;;;;;;;92.30;54.50;;;;;;;14.20;100.00;100593.94;3505914;82;99281;-91
2022/11/01 13:35:59;;;;;;;85.77;51.97;;;;;;;14.15;100.00;100587.38;3512355;82;31618;-89
2022/11/01 13:41:31;;;;;;;85.05;49.98;;;;;;;14.13;100.00;100593.92;3500175;82;99042;-90
2022/11/01 13:47:02;;;;;;;82.97;51.65;;;;;;;14.08;100.00;100590.97;3510775;82;99361;-90
2022/11/01 13:52:22;;;;;;;92.62;54.70;;;;;;;14.11;100.00;100588.00;3511240;82;32327;-89
2022/11/01 13:57:25;;;;;;;93.15;54.70;;;;;;;14.08;100.00;100590.16;3501546;82;99402;-89
2022/11/01 14:02:47;;;;;;;94.52;56.68;;;;;;;14.03;100.00;100594.70;3511653;82;33420;-89
2022/11/01 14:07:53;;;;;;;93.85;54.98;;;;;;;13.98;100.00;100597.29;3503062;82;99261;-90
2022/11/01 14:13:12;;;;;;;93.07;55.28;;;;;;;13.97;100.00;100592.14;3508128;82;31615;-89
2022/11/01 14:18:13;;;;;;;92.70;54.63;;;;;;;13.92;100.00;100600.84;3498219;82;99332;-90
2022/11/01 14:23:34;;;;;;;90.60;55.33;;;;;;;13.87;100.00;100610.33;3510172;82;32568;-89
2022/11/01 14:28:41;;;;;;;95.05;58.10;;;;;;;13.84;100.00;100602.80;3501947;82;99526;-90
2022/11/01 14:33:47;;;;;;;92.37;54.67;;;;;;;13.81;100.00;100608.34;3506554;82;31368;-87
2022/11/01 14:39:01;;;;;;;91.40;55.10;;;;;;;13.78;100.00;100612.69;3500632;82;99568;-90
2022/11/01 14:44:10;;;;;;;87.77;53.33;;;;;;;13.74;100.00;100609.12;3508713;82;26662;-90
2022/11/01 14:49:39;;;;;;;90.28;54.70;;;;;;;13.71;100.00;100625.13;3500692;82;99399;-90
2022/11/01 14:54:57;;;;;;;84.95;52.25;;;;;;;13.69;100.00;100612.88;3510001;82;33272;-90
2022/11/01 15:00:01;;;;;;;95.97;56.73;;;;;;;13.62;100.00;100612.27;3470167;83;99226;-90
2022/11/01 15:05:01;;;;;;;94.15;54.77;;;;;;;13.43;100.00;100602.96;3474648;83;32024;-90
2022/11/01 15:10:07;;;;;;;83.80;52.90;;;;;;;13.43;100.00;100602.96;3493973;82;99215;-90
2022/11/01 15:15:25;;;;;;;91.37;56.07;;;;;;;13.51;100.00;100621.74;3477797;83;26560;-91
2022/11/01 15:20:41;;;;;;;88.15;54.05;;;;;;;13.47;100.00;100622.32;3503115;82;99075;-91
2022/11/01 15:25:52;;;;;;;91.80;57.67;;;;;;;13.43;100.00;100625.08;3495279;82;33867;-90
2022/11/01 15:30:57;;;;;;;80.00;53.55;;;;;;;13.40;100.00;100630.60;3489045;83;99284;-91
2022/11/01 15:36:04;;;;;;;84.70;54.63;;;;;;;13.36;100.00;100627.80;3497969;83;31974;-92
2022/11/01 15:41:29;;;;;;;88.60;55.50;;;;;;;13.34;100.00;100632.94;3486346;83;98858;-92
2022/11/01 15:46:38;;;;;;;87.50;56.57;;;;;;;13.32;100.00;100631.75;3489940;83;99523;-92
2022/11/01 15:51:49;;;;;;;90.62;55.17;;;;;;;13.26;100.00;100647.94;3488960;83;33247;-93
2022/11/01 15:56:54;;;;;;;90.53;55.03;;;;;;;13.23;100.00;100650.08;3481514;83;99470;-91
2022/11/01 16:01:59;;;;;;;83.97;49.60;;;;;;;13.20;100.00;100653.61;3498342;83;33306;-92
2022/11/01 16:07:06;;;;;;;88.33;55.55;;;;;;;13.20;100.00;100653.61;3490497;83;99372;-93
2022/11/01 16:12:21;;;;;;;82.65;53.95;;;;;;;13.18;100.00;100657.36;3492895;83;33257;-92
2022/11/01 16:17:35;;;;;;;87.45;53.87;;;;;;;13.17;100.00;100660.51;3492814;83;99275;-92
2022/11/01 16:22:41;;;;;;;94.10;58.73;;;;;;;13.15;100.00;100657.35;3473585;82;32037;-93
2022/11/01 16:28:09;;;;;;;;;;;;;;;13.06;100.00;100643.89;3505992;82;99384;-92
2022/11/01 16:33:26;;;;;;;86.53;52.48;;;;;;;13.12;100.00;100658.11;3508229;82;33292;-92
2022/11/01 16:38:36;;;;;;;89.32;56.37;;;;;;;13.09;100.00;100665.20;3503426;82;99887;-93
2022/11/01 16:43:37;;;;;;;88.50;52.20;;;;;;;13.06;100.00;100671.53;3504044;82;33671;-93
2022/11/01 16:48:51;;;;;;;99.33;58.90;;;;;;;13.06;100.00;100671.53;3501921;82;99301;-92
2022/11/01 16:53:53;;;;;;;79.95;50.55;;;;;;;13.04;100.00;100688.29;3501989;82;33257;-92
2022/11/01 16:58:59;;;;;;;88.27;53.80;;;;;;;13.03;100.00;100697.16;3501204;82;99479;-92
2022/11/01 17:04:01;;;;;;;76.73;49.70;;;;;;;13.03;100.00;100697.16;3499066;82;26167;-92
2022/11/01 17:09:02;;;;;;;76.53;49.05;;;;;;;12.99;100.00;100685.89;3502595;82;99401;-92
2022/11/01 17:14:02;;;;;;;83.20;53.60;;;;;;;12.96;100.00;100686.07;3475969;82;31651;-93
2022/11/01 17:19:04;;;;;;;77.78;49.60;;;;;;;12.95;100.00;100694.71;3501534;82;99354;-93
2022/11/01 17:24:06;;;;;;;73.80;48.17;;;;;;;12.96;100.00;100715.66;3494654;82;31588;-92
2022/11/01 17:29:09;;;;;;;67.67;46.67;;;;;;;12.97;100.00;100717.27;3475543;84;100044;-93
2022/11/01 17:34:10;;;;;;;73.12;47.00;;;;;;;12.96;100.00;100719.80;3472928;84;33291;-91
2022/11/01 17:39:11;;;;;;;68.23;43.33;;;;;;;12.85;100.00;100700.96;3473143;84;99293;-91
2022/11/01 17:44:11;;;;;;;75.43;46.03;;;;;;;12.92;100.00;100718.37;3478984;84;31843;-92
2022/11/01 17:49:14;;;;;;;71.73;46.27;;;;;;;12.87;100.00;100717.96;3466736;84;99365;-89
2022/11/01 17:54:15;;;;;;;75.33;48.37;;;;;;;12.85;100.00;100724.44;3480238;84;31647;-91
2022/11/01 17:59:16;;;;;;;68.83;45.17;;;;;;;12.79;100.00;100723.22;3472814;84;99510;-91
2022/11/01 18:04:17;;;;;;;71.90;49.73;;;;;;;12.75;100.00;100719.66;3479429;84;31753;-92
2022/11/01 18:09:23;;;;;;;69.47;44.93;;;;;;;12.72;100.00;100718.45;3477154;84;99330;-92
2022/11/01 18:14:47;;;;;;;65.47;42.05;;;;;;;12.73;100.00;100718.66;3476503;84;26393;-90
2022/11/01 18:20:02;;;;;;;61.55;39.30;;;;;;;12.70;100.00;100731.84;3477506;84;99133;-91
2022/11/01 18:25:31;;;;;;;63.17;39.98;;;;;;;12.69;100.00;100737.16;3498170;82;33695;-91
2022/11/01 18:30:32;;;;;;;56.68;39.27;;;;;;;12.71;100.00;100731.27;3496773;82;99273;-91
2022/11/01 18:35:50;;;;;;;59.47;37.73;;;;;;;12.71;100.00;100731.27;3508993;82;32276;-91
2022/11/01 18:41:00;;;;;;;56.40;38.75;;;;;;;12.73;100.00;100729.70;3503225;82;99067;-90
2022/11/01 18:46:06;;;;;;;59.00;39.10;;;;;;;12.77;100.00;100738.01;3504622;82;34315;-91
2022/11/01 18:51:22;;;;;;;57.30;38.63;;;;;;;12.79;100.00;100743.93;3471862;83;98966;-90
2022/11/01 18:56:23;;;;;;;54.53;35.17;;;;;;;12.80;100.00;100739.41;3496877;82;99590;-91
2022/11/01 19:01:32;;;;;;;53.83;34.75;;;;;;;12.84;100.00;100738.86;3507199;82;33266;-91
2022/11/01 19:06:33;;;;;;;46.30;29.90;;;;;;;12.77;100.00;100731.11;3502800;82;100503;-91
2022/11/01 19:11:34;;;;;;;55.00;37.53;;;;;;;12.77;100.00;100731.11;3488304;82;31692;-92
2022/11/01 19:16:36;;;;;;;56.10;35.97;;;;;;;12.91;100.00;100751.33;3501604;82;99455;-92
2022/11/01 19:21:37;;;;;;;57.90;38.77;;;;;;;12.96;100.00;100748.81;3509386;82;31772;-92
2022/11/01 19:26:40;;;;;;;59.73;38.78;;;;;;;13.00;100.00;100760.69;3484764;82;99293;-92
2022/11/01 19:31:43;;;;;;;53.50;33.92;;;;;;;13.05;100.00;100761.13;3438085;84;33217;-91
2022/11/01 19:36:47;;;;;;;52.43;33.92;;;;;;;13.09;100.00;100762.53;3461564;84;99227;-91
2022/11/01 19:41:48;;;;;;;54.20;34.20;;;;;;;13.08;100.00;100766.48;3476508;84;33869;-91
2022/11/01 19:46:54;;;;;;;47.03;32.20;;;;;;;13.10;100.00;100773.20;3463249;84;99223;-90
2022/11/01 19:52:27;;;;;;;57.47;38.70;;;;;;;13.13;100.00;100780.71;3479869;84;26155;-92
2022/11/01 19:57:34;;;;;;;55.40;35.33;;;;;;;13.15;100.00;100782.52;3458685;83;99365;-92
2022/11/01 20:02:34;;;;;;;49.70;32.17;;;;;;;13.18;100.00;100787.26;3463925;84;34372;-91
2022/11/01 20:07:35;;;;;;;52.60;33.27;;;;;;;13.23;100.00;100795.77;3467486;84;99206;-91
2022/11/01 20:12:36;;;;;;;48.77;30.30;;;;;;;13.26;100.00;100799.16;3472037;84;32588;-92
2022/11/01 20:17:37;;;;;;;43.25;27.90;;;;;;;13.26;100.00;100797.77;3467425;84;99117;-92
2022/11/01 20:22:38;;;;;;;39.60;25.83;;;;;;;13.28;100.00;100806.45;3479195;84;31686;-92
2022/11/01 20:27:38;;;;;;;37.60;26.17;;;;;;;13.27;100.00;100796.01;3506032;82;99375;-92
2022/11/01 20:32:39;;;;;;;45.40;29.77;;;;;;;13.28;100.00;100792.64;3520161;82;31921;-90
2022/11/01 20:37:40;;;;;;;46.92;28.12;;;;;;;13.27;100.00;100797.97;3513300;82;99172;-92
2022/11/01 20:42:41;;;;;;;44.73;27.80;;;;;;;13.28;100.00;100803.70;3520126;82;26408;-91
2022/11/01 20:47:42;;;;;;;38.57;24.53;;;;;;;13.28;100.00;100801.73;3514292;82;99435;-91
2022/11/01 20:52:43;;;;;;;38.90;24.37;;;;;;;13.27;100.00;100808.45;3518845;82;26369;-92
2022/11/01 20:57:44;;;;;;;33.93;23.30;;;;;;;13.26;100.00;100813.78;3514975;82;99299;-93
2022/11/01 21:02:46;;;;;;;32.03;23.07;;;;;;;13.28;100.00;100814.75;3521491;82;27164;-92
2022/11/01 21:07:48;;;;;;;34.53;22.70;;;;;;;13.28;100.00;100808.65;3494852;83;99338;-93
2022/11/01 21:12:49;;;;;;;34.53;22.33;;;;;;;13.27;100.00;100811.80;3499969;83;25762;-91
2022/11/01 21:18:00;;;;;;;30.57;20.93;;;;;;;13.25;100.00;100815.54;3492777;83;99376;-92
2022/11/01 21:23:34;;;;;;;29.07;18.32;;;;;;;13.21;100.00;100814.72;3496187;83;31791;-91
2022/11/01 21:29:00;;;;;;;30.23;19.87;;;;;;;13.14;100.00;100816.84;3444220;84;99517;-91
2022/11/01 21:34:22;;;;;;;25.52;17.75;;;;;;;13.06;100.00;100819.36;3454562;84;30061;-91
2022/11/01 21:39:29;;;;;;;25.10;17.20;;;;;;;13.00;100.00;100809.04;3445638;84;99146;-90
2022/11/01 21:44:44;;;;;;;22.58;15.95;;;;;;;12.84;100.00;100805.72;3452688;84;32251;-91
2022/11/01 21:49:45;;;;;;;19.77;15.08;;;;;;;12.84;100.00;100805.72;3433122;84;99290;-92
2022/11/01 21:54:47;;;;;;;17.60;11.37;;;;;;;12.76;100.00;100809.02;3448810;84;26517;-93
2022/11/01 21:59:48;;;;;;;21.48;13.80;;;;;;;12.69;100.00;100808.16;3437854;85;99427;-92
2022/11/01 22:04:51;;;;;;;21.00;13.97;;;;;;;12.60;100.00;100805.72;3450982;85;27000;-91
2022/11/01 22:09:51;;;;;;;20.27;14.60;;;;;;;12.52;100.00;100804.08;3450773;84;99154;-92
2022/11/01 22:14:52;;;;;;;21.33;13.77;;;;;;;12.46;100.00;100808.37;3423818;84;26551;-93
2022/11/01 22:19:53;;;;;;;24.90;15.03;;;;;;;12.38;100.00;100808.69;3450683;84;99282;-91
2022/11/01 22:24:54;;;;;;;23.43;15.50;;;;;;;12.33;100.00;100799.36;3460062;84;35417;-92
2022/11/01 22:29:54;;;;;;;20.20;14.03;;;;;;;12.25;100.00;100799.07;3450297;84;99187;-92
2022/11/01 22:34:55;;;;;;;20.67;12.47;;;;;;;12.19;100.00;100804.73;3460129;85;34942;-92
2022/11/01 22:39:56;;;;;;;21.36;13.12;;;;;;;12.14;100.00;100803.11;3454114;84;99195;-92
2022/11/01 22:44:57;;;;;;;23.67;15.23;;;;;;;12.08;100.00;100807.39;3457149;84;30179;-91
2022/11/01 22:50:01;;;;;;;29.07;16.20;;;;;;;12.03;100.00;100806.91;3449208;84;99158;-92
2022/11/01 22:55:11;;;;;;;27.35;15.83;;;;;;;12.00;100.00;100818.72;3455963;84;34820;-92
2022/11/01 23:00:35;;;;;;;27.40;16.73;;;;;;;11.92;100.00;100810.95;3451437;84;99419;-91